Time;durP1;ratioP1;P1;durP2;ratioP2;P2;SDS_P1;SDS_P2;PMS_P1;PMS_P2;Temp;Humidity;BMP_temperature;BMP_pressure;BME280_temperature;BME280_humidity;BME280_pressure;Samples;Min_cycle;Max_cycle;Signal;HPM_P1;HPM_P2
2022/09/13 06:41:13;;;;;;;9.27;3.30;;;15.10;91.80;;;;;;5538134;24;20045;31
2022/09/13 08:48:31;;;;;;;3.53;0.70;;;18.90;74.00;;;;;;4884280;24;20051;-90
2022/09/13 08:51:06;;;;;;;2.70;0.88;;;19.00;72.70;;;;;;4762546;29;20418;-92
2022/09/13 08:53:46;;;;;;;2.85;0.63;;;19.00;73.70;;;;;;4753562;29;20074;-95
2022/09/13 08:56:55;;;;;;;1.52;0.70;;;19.10;72.00;;;;;;4763834;30;20055;-93
2022/09/13 09:05:31;;;;;;;4.20;0.85;;;19.10;70.20;;;;;;4816841;24;20433;-95
2022/09/13 09:08:34;;;;;;;1.35;0.52;;;19.20;69.80;;;;;;4768210;29;20126;-94
2022/09/13 09:11:09;;;;;;;1.70;0.70;;;19.20;70.20;;;;;;4786870;29;20046;-96
2022/09/13 09:13:49;;;;;;;1.27;0.50;;;19.20;72.20;;;;;;4768887;29;20062;-96
2022/09/13 09:16:40;;;;;;;2.70;0.60;;;19.30;72.30;;;;;;4788762;29;20051;-96
2022/09/13 09:19:20;;;;;;;7.82;1.02;;;19.30;71.80;;;;;;4769944;29;21113;-93
2022/09/13 09:21:49;;;;;;;2.20;0.60;;;19.30;71.60;;;;;;4787303;29;20075;-93
2022/09/13 09:24:23;;;;;;;2.15;0.70;;;19.40;73.40;;;;;;4771111;29;20106;-95
2022/09/13 09:26:53;;;;;;;2.25;0.80;;;19.40;71.90;;;;;;4770244;29;20150;-93
2022/09/13 09:29:28;;;;;;;3.55;0.80;;;19.40;70.90;;;;;;4773883;29;20043;-94
2022/09/13 09:32:20;;;;;;;2.85;0.80;;;19.30;71.00;;;;;;4782892;29;20055;-95
2022/09/13 09:35:20;;;;;;;2.10;0.75;;;19.30;70.50;;;;;;4790722;29;20065;-96
2022/09/13 09:38:09;;;;;;;2.35;0.63;;;19.40;72.40;;;;;;4785872;29;20054;-93
2022/09/13 09:40:37;;;;;;;1.73;0.50;;;19.50;69.60;;;;;;4787165;29;20040;-95
2022/09/13 09:43:19;;;;;;;1.27;0.55;;;19.50;69.30;;;;;;4785183;29;20160;-96
2022/09/13 09:45:48;;;;;;;2.22;1.02;;;19.50;67.80;;;;;;4782131;29;20102;-93
2022/09/13 09:48:20;;;;;;;3.50;0.57;;;19.50;68.10;;;;;;4788961;29;20039;-93
2022/09/13 09:50:52;;;;;;;1.38;0.60;;;19.60;70.40;;;;;;4798815;29;20141;-92
2022/09/13 09:53:25;;;;;;;0.90;0.50;;;19.60;68.80;;;;;;4785242;29;20066;-90
2022/09/13 09:56:27;;;;;;;1.88;0.47;;;19.70;69.40;;;;;;4771108;29;20055;-91
2022/09/13 09:58:54;;;;;;;1.60;0.60;;;19.80;69.90;;;;;;4767556;29;20100;-93
2022/09/13 10:01:24;;;;;;;1.38;0.40;;;19.90;69.90;;;;;;4787190;29;20063;-92
2022/09/13 10:04:01;;;;;;;2.58;0.57;;;19.80;69.00;;;;;;4768490;29;20078;-90
2022/09/13 10:06:30;;;;;;;2.58;0.75;;;19.80;68.50;;;;;;4787650;29;20137;-90
2022/09/13 10:09:03;;;;;;;1.52;0.60;;;19.90;68.70;;;;;;4770701;29;20061;-90
2022/09/13 10:11:51;;;;;;;1.30;0.45;;;19.80;68.50;;;;;;4760145;29;20122;-90
2022/09/13 10:14:37;;;;;;;1.70;0.50;;;19.80;70.90;;;;;;4772988;29;20126;-90
2022/09/13 10:17:24;;;;;;;1.48;0.45;;;19.90;66.80;;;;;;4786275;29;20141;-92
2022/09/13 10:20:20;;;;;;;2.50;0.70;;;19.90;67.10;;;;;;4774012;29;20074;-91
2022/09/13 10:23:10;;;;;;;3.85;0.80;;;19.90;67.60;;;;;;4773246;29;20047;-90
2022/09/13 10:25:38;;;;;;;3.42;0.73;;;19.90;66.30;;;;;;4769264;29;20484;-92
2022/09/13 10:28:12;;;;;;;2.00;0.68;;;19.90;68.30;;;;;;4786050;29;20055;-89
2022/09/13 10:30:51;;;;;;;2.65;0.63;;;19.80;65.00;;;;;;4790014;29;20115;-91
2022/09/13 10:33:34;;;;;;;3.28;0.40;;;19.70;66.90;;;;;;4772897;29;20054;-90
2022/09/13 10:36:13;;;;;;;0.80;0.30;;;19.80;66.50;;;;;;4781881;29;20600;-91
2022/09/13 10:39:03;;;;;;;2.08;0.50;;;19.80;65.40;;;;;;4765522;29;20073;-92
2022/09/13 10:41:34;;;;;;;2.25;0.50;;;19.90;66.10;;;;;;4774624;29;20058;-91
2022/09/13 10:44:05;;;;;;;1.95;0.50;;;20.00;67.00;;;;;;4785005;29;20047;-93
2022/09/13 10:46:39;;;;;;;3.78;0.50;;;20.10;67.10;;;;;;4774000;29;20555;-94
2022/09/13 10:49:52;;;;;;;1.45;0.65;;;20.20;67.40;;;;;;4789641;29;20143;-94
2022/09/13 10:52:40;;;;;;;1.58;0.40;;;20.20;65.90;;;;;;4785173;29;20057;-90
2022/09/13 10:55:17;;;;;;;1.88;0.45;;;20.30;66.10;;;;;;4774824;29;20398;-91
2022/09/13 10:57:54;;;;;;;1.73;0.43;;;20.40;66.20;;;;;;4788244;29;20043;-90
2022/09/13 11:00:38;;;;;;;1.30;0.38;;;20.30;62.50;;;;;;4772668;29;20142;-95
2022/09/13 11:03:11;;;;;;;1.95;0.40;;;20.20;63.40;;;;;;4772807;29;20047;-90
2022/09/13 11:05:41;;;;;;;1.35;0.40;;;20.30;64.30;;;;;;4773443;29;20058;-91
2022/09/13 11:08:14;;;;;;;3.83;0.68;;;20.20;63.10;;;;;;4770201;29;20548;-92
2022/09/13 11:11:07;;;;;;;1.27;0.50;;;20.20;63.50;;;;;;4782152;29;20055;-91
2022/09/13 11:14:01;;;;;;;2.80;0.50;;;20.20;64.80;;;;;;4800609;29;20051;-91
2022/09/13 11:16:46;;;;;;;1.50;0.52;;;20.20;64.60;;;;;;4786568;29;20054;-91
2022/09/13 11:19:33;;;;;;;1.00;0.40;;;20.30;64.70;;;;;;4790706;29;20050;-91
2022/09/13 11:22:06;;;;;;;5.45;0.60;;;20.40;64.20;;;;;;4789911;29;20173;-91
2022/09/13 11:24:54;;;;;;;5.88;0.50;;;20.50;64.90;;;;;;4781255;29;20111;-92
2022/09/13 11:28:01;;;;;;;5.32;0.50;;;20.50;66.70;;;;;;4786373;29;20055;-90
2022/09/13 11:30:32;;;;;;;1.25;0.52;;;20.50;66.50;;;;;;4754272;29;20048;-91
2022/09/13 11:33:25;;;;;;;2.00;0.47;;;20.40;64.90;;;;;;4770623;29;20082;-90
2022/09/13 11:36:14;;;;;;;1.77;0.43;;;20.40;66.60;;;;;;4782287;29;20138;-90
2022/09/13 11:39:12;;;;;;;3.35;0.50;;;20.50;65.60;;;;;;4767970;29;20053;-90
2022/09/13 11:42:14;;;;;;;3.60;0.57;;;20.40;63.90;;;;;;4785352;29;20070;-90
2022/09/13 11:44:47;;;;;;;2.33;0.50;;;20.60;64.30;;;;;;4745898;29;20047;-90
2022/09/13 11:47:48;;;;;;;2.10;0.40;;;20.50;64.70;;;;;;4769708;29;20077;-91
2022/09/13 11:50:54;;;;;;;2.08;0.70;;;20.60;64.80;;;;;;4760580;30;20154;-90
2022/09/13 11:53:49;;;;;;;1.77;0.50;;;20.60;64.50;;;;;;4731041;30;20110;-90
2022/09/13 11:56:34;;;;;;;1.98;0.75;;;21.10;64.80;;;;;;4733398;30;20163;-91
2022/09/13 11:59:07;;;;;;;1.60;0.52;;;20.70;63.80;;;;;;4762536;30;20100;-91
2022/09/13 12:01:46;;;;;;;2.72;0.60;;;20.70;63.80;;;;;;4750073;30;20111;-90
2022/09/13 12:04:27;;;;;;;2.28;0.57;;;20.70;63.90;;;;;;4760337;30;20134;-91
2022/09/13 12:07:05;;;;;;;2.10;0.73;;;20.60;64.80;;;;;;4779076;30;20047;-93
2022/09/13 12:09:43;;;;;;;4.25;0.60;;;20.70;64.50;;;;;;4746705;30;20052;-91
2022/09/13 12:12:12;;;;;;;3.45;0.60;;;20.70;63.70;;;;;;4760380;30;20047;-92
2022/09/13 12:14:57;;;;;;;2.65;0.70;;;20.80;63.70;;;;;;4779744;29;20166;-92
2022/09/13 12:17:58;;;;;;;1.90;0.63;;;20.80;63.40;;;;;;4782153;29;20044;-91
2022/09/13 12:20:36;;;;;;;2.83;0.55;;;20.80;62.80;;;;;;4738797;29;20064;-91
2022/09/13 12:23:11;;;;;;;3.05;0.60;;;20.80;62.50;;;;;;4778739;29;20097;-89
2022/09/13 12:25:46;;;;;;;2.67;0.68;;;20.70;60.30;;;;;;4785606;29;20039;-89
2022/09/13 12:28:43;;;;;;;3.08;0.60;;;20.80;64.40;;;;;;4768800;29;20103;-90
2022/09/13 12:31:24;;;;;;;3.03;0.90;;;20.80;61.30;;;;;;4761999;29;20051;-90
2022/09/13 12:33:54;;;;;;;1.88;0.80;;;20.80;62.30;;;;;;4787847;29;20153;-89
2022/09/13 12:36:34;;;;;;;2.33;0.68;;;20.70;63.10;;;;;;4788657;29;20142;-90
2022/09/13 12:39:39;;;;;;;3.42;0.75;;;20.60;62.00;;;;;;4782003;29;20051;-89
2022/09/13 12:42:42;;;;;;;3.95;0.90;;;20.50;63.10;;;;;;4780273;29;20579;-90
2022/09/13 12:45:28;;;;;;;1.50;0.70;;;20.60;64.40;;;;;;4783508;29;20051;-91
2022/09/13 12:48:07;;;;;;;2.58;0.65;;;20.60;63.10;;;;;;4757411;30;20775;-91
2022/09/13 12:51:04;;;;;;;5.22;0.98;;;20.60;63.90;;;;;;4780492;29;20117;-92
2022/09/13 12:53:47;;;;;;;2.72;0.68;;;20.70;64.50;;;;;;4775614;29;20522;-90
2022/09/13 12:56:39;;;;;;;2.35;0.80;;;20.60;63.40;;;;;;4786389;29;20050;-91
2022/09/13 12:59:19;;;;;;;1.63;0.80;;;20.60;63.00;;;;;;4780139;29;20708;-94
2022/09/13 13:01:49;;;;;;;1.95;0.70;;;20.50;64.30;;;;;;4769241;29;20051;-92
2022/09/13 13:04:27;;;;;;;1.90;0.68;;;20.50;64.40;;;;;;4769269;29;20154;-92
2022/09/13 13:07:19;;;;;;;2.83;0.50;;;20.50;64.90;;;;;;4783267;29;20338;-93
2022/09/13 13:09:53;;;;;;;2.73;0.70;;;20.40;64.70;;;;;;4775030;29;20051;-91
2022/09/13 13:12:31;;;;;;;1.98;0.70;;;20.40;62.90;;;;;;4800855;29;20066;-89
2022/09/13 13:15:01;;;;;;;1.55;0.57;;;20.50;63.40;;;;;;4786089;29;20110;-90
2022/09/13 13:17:49;;;;;;;1.27;0.50;;;20.40;63.90;;;;;;4784161;29;20043;-91
2022/09/13 13:20:39;;;;;;;2.65;0.60;;;20.40;62.80;;;;;;4763449;29;20086;-91
2022/09/13 13:23:24;;;;;;;1.85;0.60;;;20.50;63.10;;;;;;4767033;29;20057;-90
2022/09/13 13:25:59;;;;;;;3.53;0.60;;;20.40;64.20;;;;;;4771140;29;20051;-90
2022/09/13 13:28:43;;;;;;;0.85;0.40;;;20.50;66.50;;;;;;4789391;29;20050;-89
2022/09/13 13:31:31;;;;;;;1.98;0.73;;;20.50;64.80;;;;;;4773025;29;20137;-90
2022/09/13 13:34:21;;;;;;;1.73;0.50;;;20.60;63.20;;;;;;4791145;29;20096;-89
2022/09/13 13:37:07;;;;;;;3.47;0.50;;;20.70;63.10;;;;;;4778081;29;20047;-91
2022/09/13 13:39:42;;;;;;;1.45;0.50;;;20.80;62.80;;;;;;4782447;29;20042;-90
2022/09/13 13:42:26;;;;;;;2.78;0.82;;;20.80;63.60;;;;;;4783849;29;20118;-89
2022/09/13 13:44:53;;;;;;;2.28;0.70;;;20.80;61.80;;;;;;4765591;29;20051;-90
2022/09/13 13:47:20;;;;;;;0.90;0.40;;;20.80;61.90;;;;;;4783674;29;20045;-90
2022/09/13 13:49:53;;;;;;;1.45;0.50;;;20.80;62.80;;;;;;4785380;29;20209;-89
2022/09/13 13:52:23;;;;;;;2.50;0.50;;;20.80;64.90;;;;;;4772808;29;20075;-90
2022/09/13 13:54:52;;;;;;;3.90;0.70;;;20.80;65.00;;;;;;4788134;29;20043;-90
2022/09/13 13:57:25;;;;;;;1.25;0.40;;;20.80;63.10;;;;;;4775062;29;20087;-88
2022/09/13 14:00:16;;;;;;;1.63;0.52;;;20.90;64.40;;;;;;4788716;29;20077;-88
2022/09/13 14:02:52;;;;;;;2.22;0.30;;;20.90;65.60;;;;;;4773623;29;20054;-90
2022/09/13 14:05:50;;;;;;;0.80;0.40;;;20.90;64.90;;;;;;4789573;29;20134;-89
2022/09/13 14:08:55;;;;;;;2.90;0.50;;;20.90;64.60;;;;;;4765738;29;20451;-90
2022/09/13 14:12:00;;;;;;;2.03;0.60;;;20.80;66.20;;;;;;4771122;29;20051;-91
2022/09/13 14:14:37;;;;;;;1.17;0.38;;;20.80;64.40;;;;;;4787774;29;20181;-90
2022/09/13 14:17:30;;;;;;;1.67;0.50;;;20.80;64.00;;;;;;4785947;29;20413;-89
2022/09/13 14:20:03;;;;;;;3.17;0.50;;;20.80;65.40;;;;;;4774731;29;20074;-90
2022/09/13 14:22:30;;;;;;;1.25;0.50;;;20.90;65.20;;;;;;4773799;29;20458;-90
2022/09/13 14:25:31;;;;;;;1.27;0.70;;;20.90;64.50;;;;;;4764741;29;20569;-87
2022/09/13 14:28:01;;;;;;;2.85;1.17;;;20.90;65.00;;;;;;4783334;29;20067;-91
2022/09/13 14:30:35;;;;;;;1.70;0.88;;;20.80;65.00;;;;;;4770606;29;20508;-91
2022/09/13 14:33:04;;;;;;;1.50;0.50;;;20.80;64.60;;;;;;4788026;29;20101;-91
2022/09/13 14:35:39;;;;;;;1.75;0.40;;;20.80;65.80;;;;;;4787981;29;20047;-89
2022/09/13 14:38:22;;;;;;;1.58;0.57;;;20.80;65.70;;;;;;4775231;29;20051;-88
2022/09/13 14:40:52;;;;;;;0.90;0.50;;;20.70;65.20;;;;;;4777363;29;20135;-89
2022/09/13 14:43:25;;;;;;;1.73;0.60;;;20.70;66.70;;;;;;4782460;29;20062;-88
2022/09/13 14:46:07;;;;;;;1.00;0.45;;;20.70;66.40;;;;;;4782272;29;20081;-88
2022/09/13 14:48:50;;;;;;;1.80;0.60;;;20.70;66.60;;;;;;4769497;29;20047;-89
2022/09/13 14:51:44;;;;;;;1.17;0.55;;;20.60;65.40;;;;;;4771956;29;20409;-88
2022/09/13 14:54:19;;;;;;;1.58;0.45;;;20.70;64.80;;;;;;4771938;29;20102;-87
2022/09/13 14:56:57;;;;;;;1.10;0.50;;;20.70;66.00;;;;;;4762102;29;20063;-88
2022/09/13 14:59:54;;;;;;;1.75;0.60;;;20.70;64.80;;;;;;4769860;29;20051;-88
2022/09/13 15:02:29;;;;;;;1.17;0.50;;;20.70;65.40;;;;;;4785951;29;20065;-88
2022/09/13 15:04:58;;;;;;;0.85;0.35;;;20.50;66.50;;;;;;4704186;30;1689442;-87
2022/09/13 15:07:30;;;;;;;1.80;1.00;;;20.60;65.40;;;;;;4754848;29;20051;-88
2022/09/13 15:10:25;;;;;;;0.85;0.45;;;20.60;66.10;;;;;;4753843;30;20109;-87
2022/09/13 15:13:05;;;;;;;1.20;0.73;;;20.60;66.10;;;;;;4725735;30;20142;-88
2022/09/13 15:15:40;;;;;;;2.28;0.75;;;20.50;66.50;;;;;;4758729;30;20558;-89
2022/09/13 15:18:19;;;;;;;1.80;0.50;;;20.50;67.10;;;;;;4767121;30;20151;-86
2022/09/13 15:21:14;;;;;;;2.70;1.00;;;20.50;66.40;;;;;;4754198;30;20055;-88
2022/09/13 15:23:48;;;;;;;1.23;0.60;;;20.50;66.60;;;;;;4765635;30;20059;-88
2022/09/13 15:26:24;;;;;;;1.77;0.60;;;20.40;66.70;;;;;;4768266;30;20131;-90
2022/09/13 15:29:17;;;;;;;1.08;0.40;;;20.40;66.90;;;;;;4770352;30;20139;-89
2022/09/13 15:31:44;;;;;;;1.95;0.50;;;20.30;68.30;;;;;;4765383;30;20063;-89
2022/09/13 15:34:20;;;;;;;1.10;0.40;;;20.30;67.70;;;;;;4756643;29;20058;-89
2022/09/13 15:37:00;;;;;;;1.42;0.60;;;20.30;68.00;;;;;;4754259;30;20071;-90
2022/09/13 15:39:28;;;;;;;1.80;0.70;;;20.20;68.70;;;;;;4768880;29;20059;-90
2022/09/13 15:41:58;;;;;;;1.50;0.50;;;20.10;68.90;;;;;;4753581;30;20090;-90
2022/09/13 15:44:28;;;;;;;1.33;0.60;;;20.10;69.50;;;;;;4754303;30;20051;-90
2022/09/13 15:47:01;;;;;;;3.03;0.47;;;20.00;69.40;;;;;;4750819;30;20050;-89
2022/09/13 15:49:30;;;;;;;1.65;0.85;;;20.00;69.90;;;;;;4763250;30;20052;-90
2022/09/13 15:52:01;;;;;;;2.25;0.80;;;19.90;69.50;;;;;;4756002;30;20054;-90
2022/09/13 15:54:37;;;;;;;4.30;1.00;;;19.90;69.90;;;;;;4755927;30;20047;-90
2022/09/13 15:57:24;;;;;;;1.52;0.63;;;19.80;70.80;;;;;;4756820;30;20055;-90
2022/09/13 15:59:53;;;;;;;2.65;0.57;;;19.80;70.90;;;;;;4756303;29;20047;-90
2022/09/13 16:02:27;;;;;;;2.25;0.47;;;19.70;70.60;;;;;;4755764;30;20055;-90
2022/09/13 16:04:55;;;;;;;1.45;0.40;;;19.70;71.20;;;;;;4771696;30;20059;-91
2022/09/13 16:07:24;;;;;;;2.15;0.45;;;19.70;71.10;;;;;;4752078;30;20117;-89
2022/09/13 16:09:52;;;;;;;1.70;0.50;;;19.60;71.00;;;;;;4752492;30;20047;-90
2022/09/13 16:12:23;;;;;;;2.90;0.50;;;19.60;71.10;;;;;;4760037;30;20058;-90
2022/09/13 16:14:50;;;;;;;2.13;0.63;;;19.60;70.90;;;;;;4767699;30;20489;-90
2022/09/13 16:17:24;;;;;;;2.10;0.55;;;19.60;71.00;;;;;;4752665;30;20489;-89
2022/09/13 16:19:52;;;;;;;3.35;0.70;;;19.60;71.10;;;;;;4767096;30;20054;-89
2022/09/13 16:22:21;;;;;;;1.00;0.40;;;19.60;71.30;;;;;;4771003;29;20603;-90
2022/09/13 16:24:48;;;;;;;1.45;0.50;;;19.60;71.70;;;;;;4764834;30;20104;-89
2022/09/13 16:27:17;;;;;;;3.60;0.80;;;19.60;72.00;;;;;;4752628;30;20100;-90
2022/09/13 16:29:45;;;;;;;2.65;1.20;;;19.50;72.70;;;;;;4754796;30;20451;-90
2022/09/13 16:32:13;;;;;;;4.22;1.50;;;19.50;72.50;;;;;;4754259;29;20053;-90
2022/09/13 16:34:40;;;;;;;3.40;0.90;;;19.50;72.10;;;;;;4767439;30;20052;-90
2022/09/13 16:37:17;;;;;;;2.25;1.08;;;19.50;72.30;;;;;;4754414;30;20070;-91
2022/09/13 16:39:44;;;;;;;2.75;0.98;;;19.40;72.60;;;;;;4766138;30;20056;-93
2022/09/13 16:42:16;;;;;;;4.10;0.90;;;19.40;74.00;;;;;;4747816;29;20054;-88
2022/09/13 16:44:44;;;;;;;2.95;0.70;;;19.30;73.10;;;;;;4764439;30;20498;-90
2022/09/13 16:47:12;;;;;;;2.42;0.80;;;19.30;73.00;;;;;;4747015;30;20413;-90
2022/09/13 16:49:40;;;;;;;6.00;0.60;;;19.30;73.20;;;;;;4763428;30;20063;-89
2022/09/13 16:52:08;;;;;;;2.85;0.70;;;19.20;73.30;;;;;;4751815;29;20497;-91
2022/09/13 16:54:36;;;;;;;1.42;0.70;;;19.20;73.60;;;;;;4752763;29;20524;-90
2022/09/13 16:57:05;;;;;;;3.45;0.90;;;19.20;74.50;;;;;;4748071;30;20055;-90
2022/09/13 16:59:32;;;;;;;3.20;0.80;;;19.20;76.40;;;;;;4752168;30;20056;-90
2022/09/13 17:02:00;;;;;;;2.83;0.63;;;19.10;76.60;;;;;;4762868;30;20051;-90
2022/09/13 17:04:28;;;;;;;2.97;0.73;;;19.10;77.30;;;;;;4755531;30;20062;-89
2022/09/13 17:06:56;;;;;;;3.65;0.70;;;19.00;78.30;;;;;;4762241;29;20158;-90
2022/09/13 17:09:26;;;;;;;5.38;1.00;;;19.00;78.80;;;;;;4760296;29;20062;-91
2022/09/13 17:11:54;;;;;;;3.65;1.00;;;18.90;79.40;;;;;;4767921;29;20054;-90
2022/09/13 17:14:22;;;;;;;3.65;0.90;;;18.90;80.00;;;;;;4771840;29;20048;-90
2022/09/13 17:16:55;;;;;;;7.10;0.85;;;18.90;79.90;;;;;;4746101;29;20052;-92
2022/09/13 17:19:26;;;;;;;4.13;0.95;;;18.90;79.40;;;;;;4757189;29;20047;-93
2022/09/13 17:21:56;;;;;;;9.07;1.05;;;18.80;80.10;;;;;;4748633;30;20059;-93
2022/09/13 17:24:26;;;;;;;4.03;1.33;;;18.80;80.60;;;;;;4763761;29;20039;-93
2022/09/13 17:26:55;;;;;;;8.55;1.23;;;18.70;81.30;;;;;;4776727;29;20509;-93
2022/09/13 17:29:30;;;;;;;4.38;1.13;;;18.70;82.60;;;;;;4765751;29;20043;-93
2022/09/13 17:32:02;;;;;;;5.18;1.50;;;18.60;85.50;;;;;;4776319;29;20175;-93
2022/09/13 17:34:32;;;;;;;3.00;1.25;;;18.60;85.40;;;;;;4778610;29;20929;-93
2022/09/13 17:37:02;;;;;;;4.78;1.90;;;18.50;86.80;;;;;;4766247;29;20414;-94
2022/09/13 17:39:30;;;;;;;5.30;1.60;;;18.50;87.40;;;;;;4768340;29;20057;-93
2022/09/13 17:41:58;;;;;;;6.38;1.48;;;18.40;88.60;;;;;;4764881;30;20139;-93
2022/09/13 17:44:26;;;;;;;8.90;2.15;;;18.30;88.70;;;;;;4761740;29;20724;-94
2022/09/13 17:46:53;;;;;;;5.65;2.47;;;18.30;90.00;;;;;;4762073;29;20056;-94
2022/09/13 17:49:21;;;;;;;7.13;2.33;;;18.30;90.30;;;;;;4772762;29;20080;-94
2022/09/13 17:51:48;;;;;;;4.90;2.40;;;18.20;90.70;;;;;;4754812;29;20078;-94
2022/09/13 17:54:16;;;;;;;9.85;2.13;;;18.20;91.40;;;;;;4759500;29;20047;-94
2022/09/13 17:56:44;;;;;;;11.70;2.40;;;18.20;91.70;;;;;;4761916;29;20065;-94
2022/09/13 17:59:18;;;;;;;10.38;1.98;;;18.20;91.90;;;;;;4765299;29;20043;-94
2022/09/13 18:01:48;;;;;;;7.00;1.77;;;18.10;91.50;;;;;;4762743;29;20105;-95
2022/09/13 18:04:19;;;;;;;10.32;2.08;;;18.10;91.10;;;;;;4774096;29;20119;-94
2022/09/13 18:06:49;;;;;;;6.10;1.63;;;18.10;91.30;;;;;;4771854;29;20046;-93
2022/09/13 18:09:18;;;;;;;9.73;1.65;;;18.00;90.80;;;;;;4771607;29;20053;-95
2022/09/13 18:11:47;;;;;;;4.78;1.70;;;18.00;90.50;;;;;;4777636;29;20607;-95
2022/09/13 18:14:16;;;;;;;5.78;1.30;;;17.90;90.30;;;;;;4772706;29;20507;-95
2022/09/13 18:16:45;;;;;;;4.22;1.67;;;17.90;90.70;;;;;;4762085;29;20065;-95
2022/09/13 18:19:14;;;;;;;5.57;1.73;;;17.90;90.60;;;;;;4766452;29;20269;-96
2022/09/13 18:21:42;;;;;;;2.63;1.30;;;17.80;90.40;;;;;;4779126;29;20063;-96
2022/09/13 18:24:10;;;;;;;11.52;2.00;;;17.80;90.70;;;;;;4768693;29;20058;-94
2022/09/13 18:26:38;;;;;;;3.67;1.30;;;17.80;90.90;;;;;;4780158;29;20062;-94
2022/09/13 18:29:09;;;;;;;4.57;1.70;;;17.70;91.40;;;;;;4769051;29;20054;-94
2022/09/13 18:31:39;;;;;;;3.50;1.42;;;17.70;92.20;;;;;;4764466;29;20059;-93
2022/09/13 18:34:11;;;;;;;7.10;1.95;;;17.70;92.40;;;;;;4752352;30;20063;-95
2022/09/13 18:36:40;;;;;;;3.67;1.80;;;17.70;92.70;;;;;;4747862;30;20056;-94
2022/09/13 18:39:14;;;;;;;3.85;1.92;;;17.60;92.50;;;;;;4759055;30;20860;-94
2022/09/13 18:41:44;;;;;;;3.08;1.45;;;17.60;93.20;;;;;;4761104;30;20059;-94
2022/09/13 18:44:13;;;;;;;3.42;2.03;;;17.60;93.40;;;;;;4743901;30;20051;-95
2022/09/13 18:46:42;;;;;;;4.95;1.65;;;17.50;93.80;;;;;;4764233;30;20055;-94
2022/09/13 18:49:11;;;;;;;8.63;2.00;;;17.60;93.90;;;;;;4765334;30;20051;-94
2022/09/13 18:51:43;;;;;;;3.47;1.67;;;17.60;94.30;;;;;;4764515;30;20056;-94
2022/09/13 18:54:15;;;;;;;3.00;1.60;;;17.60;94.30;;;;;;4744584;30;20084;-95
2022/09/13 18:56:44;;;;;;;3.17;1.38;;;17.60;94.20;;;;;;4745654;30;20063;-91
2022/09/13 18:59:12;;;;;;;4.03;1.88;;;17.50;94.20;;;;;;4745972;30;20055;-94
2022/09/13 19:01:42;;;;;;;3.40;1.58;;;17.60;93.60;;;;;;4763862;30;20082;-94
2022/09/13 19:07:34;;;;;;;4.57;2.30;;;17.50;94.10;;;;;;4808891;24;20063;-94
2022/09/13 19:13:01;;;;;;;4.93;1.83;;;17.50;93.70;;;;;;4848808;24;20753;-93
2022/09/13 19:25:28;;;;;;;2.10;1.40;;;17.40;93.30;;;;;;4897687;24;20058;-94
